Time;durP1;ratioP1;P1;durP2;ratioP2;P2;SDS_P1;SDS_P2;PMS_P1;PMS_P2;Temp;Humidity;BMP_temperature;BMP_pressure;BME280_temperature;BME280_humidity;BME280_pressure;Samples;Min_cycle;Max_cycle;Signal;HPM_P1;HPM_P2
2022/01/31 00:00:13;;;;;;;8.50;5.30;;;;;20.50;100482.00;;;;2054091;28;20322;-46
2022/01/31 00:01:14;;;;;;;9.35;5.35;;;;;20.50;100464.00;;;;2049607;28;20223;-46
2022/01/31 00:02:14;;;;;;;6.80;4.80;;;;;20.40;100467.00;;;;2047213;28;20216;-46
2022/01/31 00:03:15;;;;;;;7.00;4.93;;;;;20.40;100445.00;;;;2046398;28;20603;-47
2022/01/31 00:04:15;;;;;;;7.67;4.63;;;;;20.40;100446.00;;;;2046406;28;20216;-46
2022/01/31 00:05:16;;;;;;;10.00;5.27;;;;;20.40;100430.00;;;;2045468;28;20299;-46
2022/01/31 00:06:16;;;;;;;8.13;4.50;;;;;20.50;100436.00;;;;2045735;28;20229;-46
2022/01/31 00:07:16;;;;;;;12.20;5.20;;;;;20.40;100433.00;;;;2046351;28;20213;-46
2022/01/31 00:08:22;;;;;;;8.40;4.93;;;;;20.40;100443.00;;;;2046469;28;20325;-46
2022/01/31 00:09:23;;;;;;;7.97;4.35;;;;;20.50;100439.00;;;;2046549;28;20367;-46
2022/01/31 00:10:27;;;;;;;7.20;4.50;;;;;20.40;100423.00;;;;2043531;28;20220;-46
2022/01/31 00:11:28;;;;;;;10.20;4.95;;;;;20.40;100426.00;;;;2046033;28;20216;-46
2022/01/31 00:12:30;;;;;;;11.57;5.60;;;;;20.40;100426.00;;;;2046300;28;20214;-46
2022/01/31 00:13:37;;;;;;;7.80;4.75;;;;;20.40;100421.00;;;;2046396;28;20212;-46
2022/01/31 00:14:47;;;;;;;6.80;4.15;;;;;20.40;100413.00;;;;2046063;28;20227;-46
2022/01/31 00:15:53;;;;;;;5.75;4.07;;;;;20.40;100421.00;;;;2046161;28;20213;-47
2022/01/31 00:16:54;;;;;;;8.88;4.53;;;;;20.40;100431.00;;;;2046272;28;20231;-46
2022/01/31 00:17:54;;;;;;;7.90;4.50;;;;;20.30;100432.00;;;;2046221;28;20687;-46
2022/01/31 00:18:54;;;;;;;10.13;5.00;;;;;20.40;100435.00;;;;2045641;28;20216;-46
2022/01/31 00:19:55;;;;;;;8.80;4.20;;;;;20.40;100432.00;;;;2044408;28;20846;-49
2022/01/31 00:20:55;;;;;;;7.30;3.97;;;;;20.40;100429.00;;;;2042721;28;20222;-47
2022/01/31 00:21:56;;;;;;;8.17;4.50;;;;;20.40;100435.00;;;;2037559;28;20227;-46
2022/01/31 00:22:56;;;;;;;9.97;4.57;;;;;20.30;100441.00;;;;2037426;28;20225;-46
2022/01/31 00:23:56;;;;;;;7.43;4.67;;;;;20.30;100445.00;;;;2046347;28;20216;-46
2022/01/31 00:24:57;;;;;;;6.33;4.23;;;;;20.30;100435.00;;;;2046451;28;20248;-46
2022/01/31 00:25:57;;;;;;;7.10;4.70;;;;;20.30;100425.00;;;;2043507;28;20252;-46
2022/01/31 00:26:57;;;;;;;7.90;4.07;;;;;20.30;100420.00;;;;2045790;28;20213;-46
2022/01/31 00:27:58;;;;;;;6.23;3.90;;;;;20.30;100418.00;;;;2044547;28;20251;-46
2022/01/31 00:28:58;;;;;;;5.13;3.53;;;;;20.30;100411.00;;;;2045820;28;20227;-46
2022/01/31 00:29:58;;;;;;;6.23;3.80;;;;;20.30;100413.00;;;;2041601;28;20220;-46
2022/01/31 00:30:59;;;;;;;8.20;4.20;;;;;20.30;100396.00;;;;2043847;28;20323;-46
2022/01/31 00:31:59;;;;;;;7.50;4.57;;;;;20.30;100391.00;;;;2044800;28;20224;-47
2022/01/31 00:32:59;;;;;;;8.00;4.00;;;;;20.30;100375.00;;;;2048541;28;20219;-46
2022/01/31 00:34:00;;;;;;;6.50;3.90;;;;;20.30;100369.00;;;;2045456;28;20220;-46
2022/01/31 00:35:00;;;;;;;7.73;3.90;;;;;20.30;100366.00;;;;2045938;28;20216;-46
2022/01/31 00:36:00;;;;;;;7.23;3.47;;;;;20.30;100358.00;;;;2046080;28;20228;-46
2022/01/31 00:37:01;;;;;;;8.73;4.20;;;;;20.30;100358.00;;;;2046095;28;20375;-45
2022/01/31 00:38:01;;;;;;;5.40;3.50;;;;;20.30;100358.00;;;;2045785;28;20235;-46
2022/01/31 00:39:02;;;;;;;7.80;3.87;;;;;20.30;100361.00;;;;2045438;28;20224;-46
2022/01/31 00:40:03;;;;;;;8.38;4.10;;;;;20.20;100318.00;;;;2045290;28;20328;-46
2022/01/31 00:41:04;;;;;;;7.80;3.92;;;;;20.20;100357.00;;;;2034230;28;20225;-46
2022/01/31 00:42:07;;;;;;;7.90;4.00;;;;;20.30;100354.00;;;;2045181;28;20224;-46
2022/01/31 00:43:12;;;;;;;6.97;4.20;;;;;20.20;100360.00;;;;2045527;28;20223;-46
2022/01/31 00:44:24;;;;;;;4.90;3.28;;;;;20.20;100361.00;;;;2045652;28;20231;-46
2022/01/31 00:45:29;;;;;;;5.30;3.60;;;;;20.20;100352.00;;;;2045698;28;20216;-46
2022/01/31 00:46:39;;;;;;;5.53;3.10;;;;;20.20;100356.00;;;;2053481;28;20692;-46
2022/01/31 00:47:43;;;;;;;5.85;3.45;;;;;20.20;100359.00;;;;2046327;28;20220;-46
2022/01/31 00:48:45;;;;;;;6.00;3.70;;;;;20.20;100351.00;;;;2044980;28;20371;-46
2022/01/31 00:50:06;;;;;;;5.32;3.55;;;;;20.20;100350.00;;;;2047226;28;20361;-46
2022/01/31 00:51:07;;;;;;;6.07;3.50;;;;;20.20;100339.00;;;;2051623;28;20216;-46
2022/01/31 00:52:07;;;;;;;6.40;3.20;;;;;20.20;100336.00;;;;2054996;28;20225;-46
2022/01/31 00:53:07;;;;;;;7.20;3.20;;;;;20.20;100335.00;;;;2055140;28;20223;-46
2022/01/31 00:54:08;;;;;;;7.20;3.23;;;;;20.20;100326.00;;;;2054653;28;20242;-45
2022/01/31 00:55:09;;;;;;;6.50;3.50;;;;;20.20;100318.00;;;;2054929;28;20270;-46
2022/01/31 00:56:09;;;;;;;6.97;3.35;;;;;20.20;100310.00;;;;2054382;28;20298;-46
2022/01/31 00:57:10;;;;;;;6.30;3.30;;;;;20.20;100307.00;;;;2054983;28;20207;-46
2022/01/31 00:58:10;;;;;;;5.87;3.13;;;;;20.20;100307.00;;;;2054170;28;20226;-47
2022/01/31 00:59:10;;;;;;;7.13;3.20;;;;;20.20;100289.00;;;;2055030;28;20207;-46
2022/01/31 01:00:11;;;;;;;5.43;3.20;;;;;20.20;100291.00;;;;2055018;28;20208;-45
2022/01/31 01:01:12;;;;;;;6.43;3.00;;;;;20.20;100283.00;;;;2053873;28;20215;-45
2022/01/31 01:02:12;;;;;;;6.97;2.83;;;;;20.10;100281.00;;;;2054979;28;20491;-45
2022/01/31 01:03:12;;;;;;;5.93;2.97;;;;;20.10;100261.00;;;;2055238;28;20766;-46
2022/01/31 01:04:13;;;;;;;7.57;3.40;;;;;20.20;100264.00;;;;2055334;28;20294;-46
2022/01/31 01:05:14;;;;;;;7.10;3.17;;;;;20.20;100251.00;;;;2054192;28;20231;-46
2022/01/31 01:06:14;;;;;;;8.40;3.40;;;;;20.10;100248.00;;;;2043881;28;20224;-45
2022/01/31 01:07:14;;;;;;;5.67;3.13;;;;;20.10;100238.00;;;;2053945;28;20313;-46
2022/01/31 01:08:15;;;;;;;9.90;3.57;;;;;20.10;100240.00;;;;2054362;28;20223;-46
2022/01/31 01:09:15;;;;;;;7.40;3.10;;;;;20.00;100233.00;;;;2055040;28;20239;-46
2022/01/31 01:10:16;;;;;;;6.30;3.60;;;;;20.10;100239.00;;;;2053183;28;20215;-47
2022/01/31 01:11:17;;;;;;;6.43;3.40;;;;;20.10;100238.00;;;;2054672;28;20211;-47
2022/01/31 01:12:18;;;;;;;5.80;2.90;;;;;20.10;100230.00;;;;2054922;28;20218;-46
2022/01/31 01:13:18;;;;;;;4.27;2.67;;;;;20.10;100222.00;;;;2054915;28;20219;-46
2022/01/31 01:14:18;;;;;;;7.00;3.47;;;;;20.10;100223.00;;;;2054857;28;20477;-46
2022/01/31 01:15:19;;;;;;;6.37;3.40;;;;;20.10;100220.00;;;;2054838;28;20220;-46
2022/01/31 01:16:19;;;;;;;6.33;2.90;;;;;20.10;100216.00;;;;2047647;28;20231;-46
2022/01/31 01:17:19;;;;;;;9.20;3.17;;;;;20.10;100215.00;;;;2049985;28;20258;-46
2022/01/31 01:18:20;;;;;;;6.07;3.40;;;;;20.10;100208.00;;;;2054493;28;20239;-46
2022/01/31 01:19:20;;;;;;;7.63;3.13;;;;;20.10;100209.00;;;;2054703;28;20663;-45
2022/01/31 01:20:20;;;;;;;6.67;3.23;;;;;20.10;100195.00;;;;2054044;28;20565;-46
2022/01/31 01:21:21;;;;;;;8.47;2.97;;;;;20.10;100202.00;;;;2054462;28;20207;-46
2022/01/31 01:22:21;;;;;;;4.87;2.53;;;;;20.10;100178.00;;;;2055398;28;20207;-46
2022/01/31 01:23:21;;;;;;;6.63;2.90;;;;;20.10;100191.00;;;;2055405;28;20231;-46
2022/01/31 01:24:22;;;;;;;5.20;3.20;;;;;20.10;100163.00;;;;2055226;28;20207;-46
2022/01/31 01:25:22;;;;;;;4.23;3.03;;;;;20.10;100170.00;;;;2055493;28;20262;-47
2022/01/31 01:26:22;;;;;;;7.63;3.30;;;;;20.00;100162.00;;;;2051795;28;20219;-46
2022/01/31 01:27:23;;;;;;;7.20;3.07;;;;;20.10;100154.00;;;;2052853;28;20223;-46
2022/01/31 01:28:25;;;;;;;6.90;2.97;;;;;20.00;100147.00;;;;2054264;28;20242;-47
2022/01/31 01:29:26;;;;;;;5.10;3.30;;;;;20.00;100150.00;;;;2054779;28;20275;-46
2022/01/31 01:30:26;;;;;;;7.43;3.20;;;;;20.00;100151.00;;;;2054344;28;20277;-46
2022/01/31 01:31:27;;;;;;;7.60;3.17;;;;;20.00;100144.00;;;;2052127;28;20250;-47
2022/01/31 01:32:31;;;;;;;6.20;3.37;;;;;20.00;100144.00;;;;2055020;28;20262;-46
2022/01/31 01:33:38;;;;;;;5.35;2.58;;;;;20.00;100139.00;;;;2048963;28;20220;-46
2022/01/31 01:34:38;;;;;;;6.55;2.83;;;;;20.00;100127.00;;;;2046738;28;20220;-46
2022/01/31 01:35:39;;;;;;;4.33;2.50;;;;;20.00;100120.00;;;;2047000;28;20212;-46
2022/01/31 01:36:41;;;;;;;4.97;2.80;;;;;20.00;100108.00;;;;2046107;28;20227;-46
2022/01/31 01:37:42;;;;;;;5.65;3.13;;;;;20.00;100098.00;;;;2052793;28;20270;-46
2022/01/31 01:38:42;;;;;;;5.50;2.73;;;;;20.00;100089.00;;;;2054713;28;20238;-47
2022/01/31 01:39:45;;;;;;;5.00;2.50;;;;;20.00;100087.00;;;;2054772;28;20824;-46
2022/01/31 01:40:46;;;;;;;4.03;2.45;;;;;20.00;100089.00;;;;2051282;28;20226;-46
2022/01/31 01:41:46;;;;;;;4.80;3.17;;;;;20.00;100078.00;;;;2054467;28;20223;-47
2022/01/31 01:42:47;;;;;;;8.07;3.03;;;;;20.00;100070.00;;;;2043132;28;20470;-46
2022/01/31 01:43:47;;;;;;;6.93;2.70;;;;;20.00;100056.00;;;;2047041;28;20724;-46
2022/01/31 01:44:50;;;;;;;8.40;3.10;;;;;20.00;100052.00;;;;2046906;28;20212;-46
2022/01/31 01:45:52;;;;;;;6.93;2.72;;;;;20.00;100062.00;;;;2046319;28;20312;-47
2022/01/31 01:46:54;;;;;;;5.70;2.90;;;;;20.00;100055.00;;;;2046926;28;20347;-46
2022/01/31 01:47:54;;;;;;;7.80;2.85;;;;;20.00;100040.00;;;;2046670;28;20307;-46
2022/01/31 01:48:55;;;;;;;5.63;2.63;;;;;20.00;100040.00;;;;2047027;28;20240;-46
2022/01/31 01:49:55;;;;;;;5.27;2.60;;;;;20.00;100040.00;;;;2046579;28;20227;-46
2022/01/31 01:50:56;;;;;;;6.97;3.47;;;;;20.00;100036.00;;;;2045821;28;20220;-46
2022/01/31 01:51:56;;;;;;;4.60;2.33;;;;;20.00;100029.00;;;;2046796;28;20216;-46
2022/01/31 01:52:56;;;;;;;6.10;2.70;;;;;20.00;100021.00;;;;2046085;28;20760;-46
2022/01/31 01:53:59;;;;;;;5.10;2.90;;;;;20.00;100016.00;;;;2045798;28;20688;-46
2022/01/31 01:55:00;;;;;;;7.55;3.20;;;;;19.90;100009.00;;;;2046770;28;20297;-46
2022/01/31 01:56:00;;;;;;;5.63;2.50;;;;;19.90;100005.00;;;;2046218;28;20339;-46
2022/01/31 01:57:02;;;;;;;5.03;2.77;;;;;19.90;100000.00;;;;2045529;28;20235;-46
2022/01/31 01:58:05;;;;;;;4.50;2.65;;;;;20.00;99996.00;;;;2046126;28;20298;-46
2022/01/31 01:59:05;;;;;;;6.25;2.58;;;;;20.00;99934.00;;;;2047198;28;20220;-46
2022/01/31 02:00:08;;;;;;;5.97;2.40;;;;;20.00;99984.00;;;;2046971;28;20769;-47
2022/01/31 02:01:11;;;;;;;5.55;2.65;;;;;19.90;99973.00;;;;2046716;28;20212;-46
2022/01/31 02:02:11;;;;;;;5.93;2.97;;;;;20.00;99966.00;;;;2047194;28;20219;-46
2022/01/31 02:03:12;;;;;;;7.70;2.90;;;;;19.90;99972.00;;;;2047123;28;20741;-46
2022/01/31 02:04:12;;;;;;;6.33;2.50;;;;;19.90;99958.00;;;;2046512;28;20707;-45
2022/01/31 02:05:13;;;;;;;6.43;2.73;;;;;19.90;99961.00;;;;2046428;28;20590;-46
2022/01/31 02:06:13;;;;;;;5.57;2.77;;;;;19.90;99961.00;;;;2046082;28;20865;-46
2022/01/31 02:07:13;;;;;;;5.87;2.87;;;;;19.90;99967.00;;;;2045453;28;20224;-46
2022/01/31 02:08:14;;;;;;;4.03;2.53;;;;;19.90;99957.00;;;;2046549;28;20227;-46
2022/01/31 02:09:20;;;;;;;4.90;2.38;;;;;19.90;99949.00;;;;2046522;28;20259;-46
2022/01/31 02:10:21;;;;;;;8.90;3.08;;;;;19.90;99939.00;;;;2045368;28;21063;-46
2022/01/31 02:11:21;;;;;;;4.60;2.60;;;;;19.90;99934.00;;;;2043196;28;20289;-46
2022/01/31 02:12:23;;;;;;;3.87;2.20;;;;;19.90;99933.00;;;;2046463;28;20240;-46
2022/01/31 02:13:24;;;;;;;5.00;2.55;;;;;19.90;99937.00;;;;2046639;28;20246;-46
2022/01/31 02:14:24;;;;;;;7.38;3.03;;;;;19.90;99938.00;;;;2048254;28;20212;-46
2022/01/31 02:15:26;;;;;;;6.30;2.37;;;;;19.90;99930.00;;;;2054607;28;20220;-47
2022/01/31 02:16:26;;;;;;;6.38;2.75;;;;;19.90;99929.00;;;;2046883;28;20290;-46
2022/01/31 02:17:26;;;;;;;4.80;2.97;;;;;19.90;99921.00;;;;2061797;28;20297;-46
2022/01/31 02:18:29;;;;;;;5.63;2.57;;;;;19.90;99920.00;;;;2057021;28;20266;-46
2022/01/31 02:19:29;;;;;;;5.15;2.50;;;;;19.90;99917.00;;;;2054638;28;20211;-46
2022/01/31 02:20:30;;;;;;;4.73;2.23;;;;;19.90;99917.00;;;;2046659;28;20208;-46
2022/01/31 02:21:30;;;;;;;4.97;2.50;;;;;19.90;99923.00;;;;2043117;28;20208;-46
2022/01/31 02:22:30;;;;;;;5.80;3.33;;;;;19.90;99915.00;;;;2046597;28;20212;-46
2022/01/31 02:23:31;;;;;;;8.73;2.70;;;;;19.90;99912.00;;;;2046530;28;20690;-46
2022/01/31 02:24:31;;;;;;;5.07;2.37;;;;;19.90;99900.00;;;;2037885;28;20552;-46
2022/01/31 02:25:31;;;;;;;5.67;2.33;;;;;19.90;99897.00;;;;2037985;28;20626;-46
2022/01/31 02:26:32;;;;;;;6.60;3.00;;;;;19.90;99896.00;;;;2043202;28;20263;-46
2022/01/31 02:27:34;;;;;;;4.73;2.90;;;;;19.90;99893.00;;;;2038578;29;20233;-46
2022/01/31 02:28:36;;;;;;;5.85;2.60;;;;;19.80;99890.00;;;;2046299;28;20278;-46
2022/01/31 02:29:37;;;;;;;5.10;2.50;;;;;19.80;99883.00;;;;2042306;28;20651;-46
2022/01/31 02:30:37;;;;;;;6.23;2.77;;;;;19.80;99882.00;;;;2045016;28;20212;-47
2022/01/31 02:31:44;;;;;;;4.67;2.50;;;;;19.80;99872.00;;;;2047051;28;20209;-46
2022/01/31 02:32:45;;;;;;;4.43;2.65;;;;;19.80;99865.00;;;;2038441;28;20247;-46
2022/01/31 02:33:45;;;;;;;4.63;2.37;;;;;19.80;99879.00;;;;2038623;28;20248;-46
2022/01/31 02:34:46;;;;;;;6.60;3.00;;;;;19.80;99858.00;;;;2046871;28;21059;-45
2022/01/31 02:35:48;;;;;;;6.77;2.33;;;;;19.80;99857.00;;;;2046749;28;20243;-47
2022/01/31 02:36:48;;;;;;;5.22;2.80;;;;;19.80;99858.00;;;;2045813;28;20543;-46
2022/01/31 02:37:48;;;;;;;6.00;2.47;;;;;19.80;99862.00;;;;2046021;28;20741;-46
2022/01/31 02:38:48;;;;;;;5.37;2.20;;;;;19.80;99869.00;;;;2046516;28;20748;-46
2022/01/31 02:39:49;;;;;;;5.53;2.97;;;;;19.80;99867.00;;;;2045202;28;20661;-46
2022/01/31 02:40:50;;;;;;;4.57;2.17;;;;;19.80;99857.00;;;;2045183;28;20223;-46
2022/01/31 02:41:50;;;;;;;7.23;2.90;;;;;19.80;99857.00;;;;2044234;28;20216;-46
2022/01/31 02:42:51;;;;;;;4.07;2.43;;;;;19.80;99853.00;;;;2045461;28;20684;-46
2022/01/31 02:43:54;;;;;;;5.35;2.65;;;;;19.80;99858.00;;;;2046093;28;20216;-49
2022/01/31 02:44:54;;;;;;;8.05;2.80;;;;;19.80;99861.00;;;;2045962;28;20220;-46
2022/01/31 02:45:55;;;;;;;5.83;2.60;;;;;19.80;99859.00;;;;2043843;28;20370;-47
2022/01/31 02:46:56;;;;;;;6.90;2.90;;;;;19.80;99854.00;;;;2046540;28;20220;-47
2022/01/31 02:47:58;;;;;;;4.88;2.33;;;;;19.80;99859.00;;;;2046427;28;20229;-46
2022/01/31 02:48:59;;;;;;;4.88;2.63;;;;;19.80;99848.00;;;;2046442;28;20219;-47
2022/01/31 02:50:05;;;;;;;6.53;2.57;;;;;19.80;99852.00;;;;2045924;28;20216;-46
2022/01/31 02:51:09;;;;;;;4.70;2.60;;;;;19.70;99842.00;;;;2044077;28;20681;-45
2022/01/31 02:52:13;;;;;;;4.25;2.22;;;;;19.80;99841.00;;;;2051033;28;20222;-46
2022/01/31 02:53:28;;;;;;;5.85;2.90;;;;;19.80;99826.00;;;;2051439;28;20215;-46
2022/01/31 02:54:30;;;;;;;3.92;2.17;;;;;19.80;99805.00;;;;2045784;28;20219;-46
2022/01/31 02:55:30;;;;;;;7.25;2.85;;;;;19.80;99811.00;;;;2045086;28;20278;-46
2022/01/31 02:56:31;;;;;;;6.60;2.70;;;;;19.70;99826.00;;;;2049241;28;20298;-46
2022/01/31 02:57:31;;;;;;;4.43;2.37;;;;;19.70;99822.00;;;;2054835;28;20208;-46
2022/01/31 02:58:31;;;;;;;6.40;2.37;;;;;19.70;99820.00;;;;2054834;28;20208;-46
2022/01/31 02:59:32;;;;;;;4.10;2.30;;;;;19.70;99823.00;;;;2054801;28;20220;-46
2022/01/31 03:00:33;;;;;;;4.30;2.43;;;;;19.70;99807.00;;;;2053922;28;20612;-45
2022/01/31 03:01:34;;;;;;;5.13;2.60;;;;;19.70;99809.00;;;;2052970;28;20578;-46
2022/01/31 03:02:35;;;;;;;6.32;3.13;;;;;19.70;99800.00;;;;2054673;28;20466;-46
2022/01/31 03:03:35;;;;;;;5.00;2.50;;;;;19.70;99791.00;;;;2054656;28;20641;-46
2022/01/31 03:04:36;;;;;;;5.40;2.83;;;;;19.70;99796.00;;;;2054830;28;20600;-46
2022/01/31 03:05:36;;;;;;;5.40;2.20;;;;;19.70;99794.00;;;;2046342;28;20212;-46
2022/01/31 03:06:38;;;;;;;4.50;2.10;;;;;19.70;99781.00;;;;2046023;28;20256;-46
2022/01/31 03:07:39;;;;;;;7.47;2.70;;;;;19.70;99787.00;;;;2046262;28;20708;-46
2022/01/31 03:08:39;;;;;;;3.70;2.10;;;;;19.70;99780.00;;;;2046050;28;20216;-47
2022/01/31 03:09:39;;;;;;;4.90;2.57;;;;;19.70;99776.00;;;;2046358;28;20212;-46
2022/01/31 03:10:40;;;;;;;6.77;2.70;;;;;19.70;99776.00;;;;2045426;28;20215;-46
2022/01/31 03:11:40;;;;;;;5.13;2.47;;;;;19.70;99779.00;;;;2043119;28;20220;-46
2022/01/31 03:12:41;;;;;;;5.37;2.40;;;;;19.70;99783.00;;;;2046356;28;20212;-46
2022/01/31 03:13:41;;;;;;;6.47;2.90;;;;;19.70;99767.00;;;;2046601;28;20610;-46
2022/01/31 03:14:42;;;;;;;5.27;2.50;;;;;19.70;99763.00;;;;2045976;28;20216;-46
2022/01/31 03:15:42;;;;;;;4.55;2.00;;;;;19.70;99759.00;;;;2046127;28;20211;-46
2022/01/31 03:16:44;;;;;;;5.37;2.60;;;;;19.70;99765.00;;;;2046353;28;20227;-47
2022/01/31 03:17:49;;;;;;;4.95;2.13;;;;;19.70;99756.00;;;;2044613;28;20216;-46
2022/01/31 03:18:49;;;;;;;4.35;2.60;;;;;19.70;99763.00;;;;2046208;28;20235;-46
2022/01/31 03:19:53;;;;;;;5.57;2.50;;;;;19.70;99758.00;;;;2046007;28;20212;-46
2022/01/31 03:20:54;;;;;;;6.50;2.08;;;;;19.70;99760.00;;;;2045294;28;20216;-46
2022/01/31 03:21:54;;;;;;;5.40;2.30;;;;;19.70;99753.00;;;;2046337;28;20230;-46
2022/01/31 03:22:54;;;;;;;5.20;2.00;;;;;19.70;99758.00;;;;2046409;28;20912;-46
2022/01/31 03:23:55;;;;;;;4.97;2.13;;;;;19.70;99756.00;;;;2046504;28;20220;-46
2022/01/31 03:24:55;;;;;;;4.73;2.20;;;;;19.70;99745.00;;;;2045483;28;20836;-46
2022/01/31 03:25:56;;;;;;;4.23;2.07;;;;;19.70;99746.00;;;;2046053;28;20263;-45
2022/01/31 03:26:56;;;;;;;6.17;2.47;;;;;19.70;99740.00;;;;2048280;28;20232;-46
2022/01/31 03:27:56;;;;;;;5.13;2.50;;;;;19.70;99737.00;;;;2054279;28;20294;-46
2022/01/31 03:28:57;;;;;;;4.47;2.30;;;;;19.70;99749.00;;;;2053832;28;20231;-46
2022/01/31 03:29:57;;;;;;;5.33;2.10;;;;;19.70;99736.00;;;;2054015;28;20231;-46
2022/01/31 03:30:57;;;;;;;5.43;2.10;;;;;19.60;99731.00;;;;2052561;28;20370;-46
2022/01/31 03:31:58;;;;;;;5.33;2.30;;;;;19.60;99744.00;;;;2051083;28;20216;-46
2022/01/31 03:32:58;;;;;;;4.80;2.00;;;;;19.60;99752.00;;;;2054002;28;20220;-46
2022/01/31 03:33:58;;;;;;;5.63;2.30;;;;;19.60;99747.00;;;;2054301;28;20224;-46
2022/01/31 03:34:59;;;;;;;3.30;2.17;;;;;19.60;99729.00;;;;2048741;28;20217;-46
2022/01/31 03:36:00;;;;;;;4.80;2.37;;;;;19.60;99723.00;;;;2045721;28;20721;-51
2022/01/31 03:37:00;;;;;;;3.20;1.77;;;;;19.60;99735.00;;;;2046207;28;20220;-49
2022/01/31 03:38:00;;;;;;;3.77;1.70;;;;;19.60;99706.00;;;;2045705;28;20240;-48
2022/01/31 03:39:01;;;;;;;4.27;1.90;;;;;19.60;99708.00;;;;2045889;28;20299;-47
2022/01/31 03:40:01;;;;;;;3.60;2.10;;;;;19.60;99716.00;;;;2046143;28;20220;-47
2022/01/31 03:41:01;;;;;;;4.67;2.17;;;;;19.60;99714.00;;;;2045068;28;20345;-46
2022/01/31 03:42:02;;;;;;;3.27;2.13;;;;;19.60;99710.00;;;;2046248;28;20309;-46
2022/01/31 03:43:04;;;;;;;3.00;1.83;;;;;19.60;99740.00;;;;2046369;28;20221;-46
2022/01/31 03:44:04;;;;;;;2.67;1.70;;;;;19.60;99700.00;;;;2048939;28;20983;-46
2022/01/31 03:45:06;;;;;;;4.40;1.93;;;;;19.60;99696.00;;;;2051157;28;20271;-46
2022/01/31 03:46:06;;;;;;;2.90;1.83;;;;;19.60;99697.00;;;;2046466;28;20216;-46
2022/01/31 03:47:07;;;;;;;3.10;1.50;;;;;19.60;99681.00;;;;2046402;28;20212;-46
2022/01/31 03:48:08;;;;;;;3.53;1.77;;;;;19.60;99692.00;;;;2048762;28;20299;-46
2022/01/31 03:49:08;;;;;;;3.13;1.60;;;;;19.50;99685.00;;;;2054045;28;20216;-46
2022/01/31 03:50:08;;;;;;;4.00;1.47;;;;;19.50;99667.00;;;;2049927;28;20675;-46
2022/01/31 03:51:09;;;;;;;3.00;1.50;;;;;19.50;99665.00;;;;2044943;28;20342;-46
2022/01/31 03:52:09;;;;;;;4.00;1.77;;;;;19.50;99665.00;;;;2046564;28;20809;-46
2022/01/31 03:53:10;;;;;;;2.60;1.30;;;;;19.50;99673.00;;;;2046354;28;20688;-46
2022/01/31 03:54:11;;;;;;;5.43;1.90;;;;;19.50;99659.00;;;;2045872;28;20212;-46
2022/01/31 03:55:12;;;;;;;2.93;1.30;;;;;19.50;99666.00;;;;2045904;28;20303;-45
2022/01/31 03:56:12;;;;;;;3.10;1.75;;;;;19.50;99661.00;;;;2045989;28;20589;-45
2022/01/31 03:57:13;;;;;;;2.57;1.37;;;;;19.50;99656.00;;;;2045324;28;20295;-45
2022/01/31 03:58:13;;;;;;;3.10;1.60;;;;;19.50;99661.00;;;;2045069;28;20295;-44
2022/01/31 03:59:13;;;;;;;3.77;1.80;;;;;19.50;99653.00;;;;2046123;28;20590;-46
2022/01/31 04:00:14;;;;;;;3.60;1.73;;;;;19.30;99662.00;;;;2045931;28;20212;-45
2022/01/31 04:01:14;;;;;;;3.50;1.30;;;;;19.50;99657.00;;;;2045380;28;20228;-46
2022/01/31 04:02:15;;;;;;;2.60;1.50;;;;;19.50;99650.00;;;;2045990;28;20940;-46
2022/01/31 04:03:15;;;;;;;3.03;1.70;;;;;19.50;99666.00;;;;2045802;28;20261;-46
2022/01/31 04:04:15;;;;;;;1.90;1.43;;;;;19.50;99650.00;;;;2046285;28;20220;-46
2022/01/31 04:05:16;;;;;;;2.73;1.60;;;;;19.50;99637.00;;;;2046535;28;20244;-46
2022/01/31 04:06:16;;;;;;;3.47;1.70;;;;;19.50;99645.00;;;;2046008;28;20216;-46
2022/01/31 04:07:16;;;;;;;3.33;1.53;;;;;19.50;99636.00;;;;2046431;28;20697;-45
2022/01/31 04:08:17;;;;;;;3.30;1.77;;;;;19.50;99642.00;;;;2046318;28;20677;-45
2022/01/31 04:09:17;;;;;;;4.70;1.80;;;;;19.50;99632.00;;;;2046396;28;20719;-45
2022/01/31 04:10:18;;;;;;;3.43;1.77;;;;;19.50;99632.00;;;;2046050;28;20224;-46
2022/01/31 04:11:18;;;;;;;2.37;1.30;;;;;19.50;99624.00;;;;2045991;28;20649;-46
2022/01/31 04:12:19;;;;;;;3.40;1.60;;;;;19.50;99622.00;;;;2046450;28;20334;-46
2022/01/31 04:13:19;;;;;;;3.50;1.43;;;;;19.50;99599.00;;;;2052017;28;20223;-45
2022/01/31 04:14:20;;;;;;;3.00;1.40;;;;;19.50;99618.00;;;;2053217;28;20215;-45
2022/01/31 04:15:20;;;;;;;2.33;1.40;;;;;19.50;99606.00;;;;2053802;28;20211;-45
2022/01/31 04:16:20;;;;;;;2.40;1.50;;;;;19.50;99616.00;;;;2053116;28;20776;-45
2022/01/31 04:17:21;;;;;;;3.93;1.57;;;;;19.50;99604.00;;;;2054339;28;20640;-45
2022/01/31 04:18:22;;;;;;;2.53;1.53;;;;;19.50;99600.00;;;;2051826;28;20605;-46
2022/01/31 04:19:22;;;;;;;2.63;1.30;;;;;19.50;99615.00;;;;2046068;28;20232;-46
2022/01/31 04:20:23;;;;;;;3.33;1.80;;;;;19.50;99627.00;;;;2046163;28;20208;-46
2022/01/31 04:21:23;;;;;;;2.63;1.60;;;;;19.50;99570.00;;;;2053434;28;20588;-46
2022/01/31 04:22:26;;;;;;;2.77;1.90;;;;;19.50;99627.00;;;;2053412;28;20639;-46
2022/01/31 04:23:28;;;;;;;3.33;1.52;;;;;19.50;99625.00;;;;2054686;28;20219;-46
2022/01/31 04:24:33;;;;;;;3.33;1.92;;;;;19.40;99640.00;;;;2055021;28;20307;-46
2022/01/31 04:26:55;;;;;;;2.92;1.30;;;;;19.40;99627.00;;;;2055222;28;20692;-47
2022/01/31 04:28:02;;;;;;;4.50;1.50;;;;;19.50;99625.00;;;;2055897;28;20226;-46
2022/01/31 04:29:08;;;;;;;3.40;1.70;;;;;19.50;99621.00;;;;2055388;28;20246;-46
2022/01/31 04:30:11;;;;;;;2.92;1.48;;;;;19.50;99614.00;;;;2044519;28;20326;-47
2022/01/31 04:32:12;;;;;;;3.27;1.90;;;;;19.40;99605.00;;;;2045722;28;20545;-46
2022/01/31 04:33:12;;;;;;;3.27;1.80;;;;;19.40;99617.00;;;;2046206;28;20444;-46
2022/01/31 04:34:12;;;;;;;2.87;1.60;;;;;19.40;99602.00;;;;2050423;28;20215;-46
2022/01/31 04:35:13;;;;;;;4.23;1.93;;;;;19.40;99617.00;;;;2054679;28;20207;-46
2022/01/31 04:36:16;;;;;;;3.93;1.80;;;;;19.40;99600.00;;;;2047710;28;20247;-46
2022/01/31 04:37:16;;;;;;;3.03;1.60;;;;;19.40;99608.00;;;;2054096;28;20823;-46
2022/01/31 04:38:17;;;;;;;2.90;2.00;;;;;19.50;99606.00;;;;2054978;28;20270;-46
2022/01/31 04:39:19;;;;;;;2.77;1.87;;;;;19.40;99607.00;;;;2049099;28;20215;-46
2022/01/31 04:40:19;;;;;;;4.10;1.83;;;;;19.40;99616.00;;;;2045179;28;20239;-46
2022/01/31 04:41:20;;;;;;;3.27;2.00;;;;;19.40;99613.00;;;;2047704;28;20662;-46
2022/01/31 04:42:21;;;;;;;3.58;2.03;;;;;19.40;99609.00;;;;2051684;28;20207;-46
2022/01/31 04:43:21;;;;;;;3.30;2.10;;;;;19.40;99616.00;;;;2055782;28;20290;-46
2022/01/31 04:44:22;;;;;;;3.20;1.97;;;;;19.40;99614.00;;;;2055909;28;20207;-46
2022/01/31 04:45:22;;;;;;;4.63;2.10;;;;;19.40;99610.00;;;;2048797;28;20208;-46
2022/01/31 04:46:22;;;;;;;3.33;1.73;;;;;19.40;99609.00;;;;2054570;28;20223;-46
2022/01/31 04:47:23;;;;;;;3.87;2.00;;;;;19.30;99610.00;;;;2055789;28;20639;-46
2022/01/31 04:48:23;;;;;;;2.63;1.83;;;;;19.40;99596.00;;;;2054666;28;21131;-46
2022/01/31 04:49:23;;;;;;;3.10;1.97;;;;;19.40;99607.00;;;;2053406;28;20226;-46
2022/01/31 04:50:24;;;;;;;3.73;2.30;;;;;19.40;99599.00;;;;2053744;28;20212;-46
2022/01/31 04:51:24;;;;;;;4.03;2.00;;;;;19.40;99601.00;;;;2055059;28;20717;-46
2022/01/31 04:52:24;;;;;;;4.23;2.50;;;;;19.40;99595.00;;;;2053674;28;21080;-46
2022/01/31 04:53:25;;;;;;;4.07;2.20;;;;;19.40;99596.00;;;;2047193;28;21004;-46
2022/01/31 04:54:25;;;;;;;4.93;2.50;;;;;19.40;99587.00;;;;2046704;28;20784;-46
2022/01/31 04:55:26;;;;;;;3.23;1.80;;;;;19.40;99588.00;;;;2047349;28;20296;-46
2022/01/31 04:56:26;;;;;;;5.00;2.40;;;;;19.40;99584.00;;;;2048708;28;20220;-46
2022/01/31 04:57:26;;;;;;;2.67;1.90;;;;;19.40;99582.00;;;;2055649;28;20207;-46
2022/01/31 04:58:27;;;;;;;3.20;2.00;;;;;19.40;99581.00;;;;2055090;28;20346;-46
2022/01/31 04:59:28;;;;;;;3.10;2.13;;;;;19.40;99576.00;;;;2048580;28;20565;-46
2022/01/31 05:00:28;;;;;;;7.30;1.97;;;;;19.30;99577.00;;;;2054968;28;20226;-46
2022/01/31 05:01:29;;;;;;;4.63;2.10;;;;;19.40;99578.00;;;;2055333;28;20211;-46
2022/01/31 05:02:30;;;;;;;3.58;1.90;;;;;19.40;99582.00;;;;2048558;28;20240;-46
2022/01/31 05:03:30;;;;;;;5.30;2.43;;;;;19.30;99579.00;;;;2047918;28;20239;-46
2022/01/31 05:04:31;;;;;;;3.03;2.00;;;;;19.30;99580.00;;;;2048815;28;20212;-46
2022/01/31 05:05:31;;;;;;;4.10;2.37;;;;;19.40;99576.00;;;;2055396;28;20216;-46
2022/01/31 05:06:36;;;;;;;3.43;2.20;;;;;19.30;99575.00;;;;2049534;28;21144;-46